Luis Alberto Ojeda

Главный скаут - Unión de Santa Fe
5 Дек 2027
Воскресенье
Продолжить

Характер

Адаптивность (6) Амбиции (6) Скандальность (2) Верность (18) Стрессоустойчивость (4) Профессионализм (17) Благородство (1) Темперамент (1)

Профиль

Стиль управления Демократичный
Лицензия Континентальная C
Решительность 9
Управление людьми 12
Мотивация 5
Дисциплина 9
Удовлетворённость
100%
Усталость
0%
Должность Главный скаут
Зарплата 67.8K в нед.
Контракт 14.03.2029

Производительность

Поведение Хорошее
Эффективность тренировок
45%
Развитие игроков
20%
Профилактика травм
40%
Тактическая реализация
40%

Недавние события

Оценил игрока только что
Представил досье руководству только что
Представил досье руководству только что
Представил досье руководству только что
Представил досье руководству только что
Представил досье руководству только что
Представил досье руководству только что
Представил досье руководству только что

Текущее наблюдение

225
Игрок Клуб Статус Способность Уверенность Наблюдений Последнее наблюдение Последний голос
Pedro de la Vega Hammarby Отчёт готов 133 / 134 66% 1 01.12.2027 -
Emmanuel Gómez Riga Alvarado Активный 118 / 118 51% 1 01.12.2027 -
Ihojan Pérez Cerro Largo Активный 87 / 92 40% 9 30.11.2027 -
Thiago Szkaluba Chaves Активный 98 / 116 40% 2 30.11.2027 -
Lisandro Piñero Celta Активный 109 / 121 40% 2 28.11.2027 -
Julián Bragado Morón Активный 77 / 78 40% 4 28.11.2027 -
Bautista Carboni Defensores Unidos Активный 98 / 105 40% 8 26.11.2027 -
Matías Canedo Rampla Juniors Активный 92 / 95 40% 2 26.11.2027 -
Joel Ezra Enyimba Активный 92 / 104 40% 6 25.11.2027 -
Valentino Acuña Newell's Old Boys Активный 113 / 126 40% 5 25.11.2027 -
Héctor Preciado Envigado Активный 96 / 91 40% 7 24.11.2027 -
Musa Malik Ikorodu City Активный 85 / 85 40% 2 24.11.2027 -
Thiago Taborda AlbinoLeffe Активный 86 / 108 40% 2 23.11.2027 -
Diego Cheuquepal Racing Активный 102 / 107 40% 7 20.11.2027 -
Franco Tejera Oriental Активный 86 / 75 40% 6 20.11.2027 -
Thiago D'Archivio Alvarado Активный 82 / 80 40% 3 19.11.2027 -
Samuel Molano Patriotas Активный 85 / 93 40% 4 19.11.2027 -
Wiler Garzón Bogota Активный 94 / 83 40% 3 18.11.2027 -
David Martínez Orlando City Активный 114 / 115 40% 4 18.11.2027 -
Álex Marchal Real Sociedad Активный 100 / 112 40% 1 17.11.2027 -
Kelly Madada AFC Leopards Активный 75 / 71 40% 2 15.11.2027 -
Chinedu Nwosu Bendel Insurance Активный 108 / 107 40% 1 15.11.2027 -
Agustín Medina Athletic Bilbao Активный 108 / 141 40% 4 14.11.2027 -
Dani Díaz Real Sociedad Активный 112 / 107 40% 1 14.11.2027 -
Seun Agboola Ikorodu City Активный 68 / 76 40% 3 13.11.2027 -
Diogo Guzmán Deportivo La Coruña Активный 116 / 111 40% 6 09.11.2027 -
Emmanuel Ndubueze Shooting Stars Активный 99 / 103 40% 6 07.11.2027 -
Yang Min-Hyeok Stevenage Активный 117 / 123 40% 1 07.11.2027 -
Emiliano Zambrano Gimnasia y Esgrima Активный 79 / 98 40% 4 03.11.2027 -
Jesús Cuero Deportes Quindio Активный 75 / 91 40% 2 02.11.2027 -
Dylan Cabral Arsenal Активный 86 / 96 40% 1 31.10.2027 -
Juan Diego Perdomo Depor Активный 77 / 94 40% 2 28.10.2027 -
Dylan Salvo Defensores Unidos Активный 100 / 105 40% 2 28.10.2027 -
Alexis Rodríguez Metropolitanos Активный 106 / 98 40% 6 26.10.2027 -
Alejandro Almaraz Eibar Активный 128 / 131 40% 2 26.10.2027 -
Alex Verón Vélez Активный 122 / 126 40% 2 25.10.2027 -
Juan Rodríguez Wanderers Активный 85 / 103 40% 6 23.10.2027 -
Bautista Pereira Danubio Активный 99 / 102 40% 3 19.10.2027 -
Axel Montaña Danubio Активный 108 / 106 40% 4 15.10.2027 -
Giovanni Baroni Talleres Активный 119 / 122 40% 5 09.10.2027 -
Sunday Aniebet Enyimba Активный 79 / 101 40% 4 09.10.2027 -
Juan Camilo Córdoba Deportivo Pereira Активный 91 / 86 40% 2 03.10.2027 -
Noah Streit CF Montreal Активный 132 / 117 40% 1 03.10.2027 -
Alexis Ríos Leones Активный 74 / 86 40% 1 23.09.2027 -
Gustavo Lozano Deportivo Tachira Активный 86 / 94 40% 3 22.09.2027 -
Joaquín Muñoz O'Higgins Активный 92 / 106 40% 1 15.09.2027 -
Germán Barbas Penarol Активный 99 / 107 40% 1 05.09.2027 -
Hassan Beja AFC Leopards Активный 98 / 106 40% 1 30.08.2027 -
Fuzy Taylor Medeama Активный 97 / 76 40% 1 26.08.2027 -
Fernando Rosales Atletico Venezuela Активный 75 / 94 40% 1 25.08.2027 -
Yury Oyarzo Racing Активный 85 / 97 40% 1 24.08.2027 -
Felipe Serrés Wanderers Активный 85 / 108 40% 4 23.08.2027 -
Nicolás Ferreira Artigas Активный 89 / 89 40% 1 17.08.2027 -
Chimobi Igwilo Rangers International Активный 75 / 85 40% 1 16.08.2027 -
Lennon Miller AC Milan Активный 154 / 150 40% 4 12.08.2027 -
Ahmad Lamido Wikki Tourists Активный 84 / 101 40% 1 11.08.2027 -
Tito La Equidad Активный 80 / 99 40% 4 09.08.2027 -
Stevan Manuel Benfica Активный 92 / 110 40% 1 07.08.2027 -
Lennart Karl VfL Wolfsburg Активный 154 / 141 40% 1 06.08.2027 -
André Miranda Porto Активный 107 / 97 40% 1 06.08.2027 -
Kevin Pinto Benfica Активный 109 / 88 40% 1 02.08.2027 -
Diego Robles Union Espanola Активный 90 / 75 40% 1 07.06.2027 -
Mao Hosoya Anderlecht Активный 134 / 135 67% 1 01.06.2027 За
Tiago Goncalvez Depor Активный 66 / 79 40% 1 30.05.2027 -
Alfredo Martinez Universitario Popayan Активный 76 / 97 40% 2 29.05.2027 -
Alfonso de Luca Liverpool Montevideo Активный 97 / 94 40% 2 29.05.2027 -
Cristian Peñate Barranquilla Активный 88 / 94 40% 2 28.05.2027 -
Leonardo Mendicino Bari Активный 134 / 128 40% 3 27.05.2027 -
Aldo Fuentes Juventud Активный 81 / 86 40% 1 27.05.2027 -
Cameron Gardner Grimsby Town Активный 86 / 78 40% 4 26.05.2027 -
Harrison Armstrong Hull City Активный 123 / 136 40% 2 25.05.2027 -
Juan Cruz Cortazzo Villarreal Активный 127 / 115 40% 2 24.05.2027 -
Amaury Morales Pumas UNAM Активный 130 / 112 40% 7 22.05.2027 -
Alan Torterolo Defensor Sporting Активный 88 / 102 40% 1 21.05.2027 -
Christ Inao Oulaï Fiorentina Активный 148 / 121 40% 1 21.05.2027 -
Alex Tóth Bournemouth Активный 119 / 139 40% 2 19.05.2027 -
Santiago Diez Leiria Активный 80 / 72 40% 3 19.05.2027 -
Roberto Iliev Slavia Sofia Активный 104 / 103 40% 1 19.05.2027 -
Tomás Pérez Porto Активный 105 / 139 40% 1 19.05.2027 -
Oumar Camara Vitoria Guimaraes Активный 132 / 121 40% 10 17.05.2027 -
Andres Rondon Llaneros Активный 85 / 96 40% 1 15.05.2027 -
Luke Baartman Ajax Cape Town Активный 118 / 113 40% 3 13.05.2027 -
Karem Zoabi Torreense Активный 104 / 97 40% 2 12.05.2027 -
Tcherno Jamanca Porto Активный 59 / 82 40% 3 11.05.2027 -
Alex Woiski Deportivo Tachira Активный 84 / 92 40% 3 11.05.2027 -
João Fonseca Benfica Активный 90 / 124 40% 1 09.05.2027 -
Eliás Montiel Atlético Madrid Активный 114 / 127 40% 2 05.05.2027 -
Lucas Girotti Trapani Активный 101 / 78 40% 2 02.05.2027 -
Iovan Roganovich Sportivo Trinidense Активный 69 / 86 40% 2 30.04.2027 -
Felix Mosquera Deportes Quindio Активный 102 / 95 40% 1 30.04.2027 -
Mateus Mané Liverpool Активный 139 / 134 40% 4 28.04.2027 -
Víctor Guzmán Sporting CP Активный 100 / 97 40% 5 27.04.2027 -
Kristijan Jovović Pafos Активный 97 / 77 40% 1 22.04.2027 -
Luca Bastilla AS Nancy Активный 93 / 93 40% 2 19.04.2027 -
Máximo Seggio Paysandu Активный 73 / 78 40% 4 15.04.2027 -
Juan Giménez Rayo Vallecano Активный 101 / 112 40% 2 15.04.2027 -
Thiago Silvero Betis Активный 116 / 142 40% 2 15.04.2027 -
Adama Goïta Remo Stars Активный 79 / 105 40% 2 13.04.2027 -
Enzo Galli Granada Активный 110 / 116 40% 1 10.04.2027 -
Gonçalo Oliveira Benfica Активный 97 / 107 40% 1 10.04.2027 -
Yussif Saidu Zaragoza Активный 126 / 144 40% 2 08.04.2027 -
Leandro Martins Benfica Активный 88 / 90 40% 1 05.04.2027 -
Karim Coulibaly RC Strasbourg Активный 108 / 135 40% 1 05.04.2027 -
Ronwen Vilakazi Ajax Cape Town Активный 68 / 77 40% 1 30.03.2027 -
Agustín De la Cuesta Sevilla Активный 120 / 99 40% 1 29.03.2027 -
Kirill Cheburakov Rostov Активный 73 / 64 40% 1 27.03.2027 -
Eduardo Felicíssimo Sporting CP Активный 87 / 105 40% 2 24.03.2027 -
Tiziano Dornell Almagro Активный 99 / 115 40% 2 22.03.2027 -
Franco Tossen Almería Активный 71 / 98 40% 1 22.03.2027 -
Tiago Taobas Eibar Активный 93 / 98 40% 1 21.03.2027 -
Xavier Biscayzacú Gimnasia La Plata Активный 121 / 139 40% 1 18.03.2027 -
Tommaso Cecotti Carpi Активный 94 / 104 40% 1 18.03.2027 -
Kermit Ngcobo Free State Stars Активный 99 / 93 40% 1 15.03.2027 -
Carlos da Rosa Cerro Активный 76 / 107 40% 1 11.03.2027 -
Jeffrey Djiku Liberty Professionals Активный 72 / 97 40% 1 08.03.2027 -
Edison Gruezo Queretaro Активный 106 / 125 40% 2 05.03.2027 -
Mathys Tel Tottenham Активный 151 / 161 40% 1 05.03.2027 -
Mamadou Doumbia Watford Активный 128 / 115 40% 3 02.03.2027 -
Iwan Morgan Grimsby Town Активный 104 / 118 40% 4 28.02.2027 -
Matías Gómez Cerrito Активный 85 / 96 40% 2 23.02.2027 -
Valentín Cerrudo Cerro Largo Активный 87 / 92 40% 1 22.02.2027 -
Dani Ángel Peterborough United Активный 94 / 104 40% 2 21.02.2027 -
George Brown Sheffield Wednesday Активный 78 / 110 40% 1 20.02.2027 -
Jonás Luna Wanderers Активный 101 / 115 40% 1 15.02.2027 -
Exequiel Mereles Nacional Активный 114 / 123 40% 1 14.02.2027 -
Wendell Livyi Bereh Активный 89 / 98 40% 2 12.02.2027 -
Sidiki Chérif Coventry City Активный 132 / 138 40% 1 12.02.2027 -
Emmanuel Nweke Smouha Активный 73 / 79 40% 1 08.02.2027 -
Sindre Walle Egeli Ipswich Town Активный 145 / 126 40% 1 05.02.2027 -
Agustín Alaniz Juventud Активный 123 / 105 40% 2 02.12.2026 -
Konstantin Tyukavin KV Mechelen Активный 132 / 133 66% 1 01.12.2026 За
Toni Fruk Ipswich Town Активный 132 / 133 66% 1 01.12.2026 За
Alan Cantero Alianza Lima Активный 124 / 122 40% 3 29.11.2026 -
Santiago Pierotti Lecce Активный 128 / 117 40% 1 29.11.2026 -
Felipe Zenobio Sevilla Активный 121 / 126 40% 1 29.11.2026 -
Tomás Chancalay Minnesota United FC Активный 133 / 106 40% 3 28.11.2026 -
Leandro Suhr Boston River Активный 125 / 117 40% 3 26.11.2026 Наблюдать
Žan Vipotnik Swansea City Активный 136 / 108 40% 1 26.11.2026 -
Patrick Addo Great Olympics Активный 117 / 109 40% 1 25.11.2026 -
Ivo Costantino Danubio Активный 100 / 106 40% 4 24.11.2026 -
Rumarn Burrell Queens Park Rangers Активный 122 / 123 40% 1 24.11.2026 -
Luka Andrade Montevideo City Torque Активный 85 / 95 40% 1 24.11.2026 -
Esteban da Silva Racing Активный 124 / 112 40% 3 22.11.2026 -
Juan Manuel Boselli Krasnodar Активный 142 / 129 40% 1 22.11.2026 -
Efraín Álvarez Udinese Активный 136 / 128 40% 2 18.11.2026 -
Alexander Díaz Deportivo Riestra Активный 125 / 119 40% 1 18.11.2026 -
Agustín Módica Gimnasia y Esgrima Активный 119 / 129 40% 7 17.11.2026 -
Bautista Tomatis Racing Активный 98 / 114 40% 2 17.11.2026 -
Tiago Palacios Estudiantes Активный 144 / 136 40% 1 16.11.2026 -
Jonathan De Irastorza Levante Активный 97 / 141 40% 1 16.11.2026 -
Alejo Cruz Juventud Активный 122 / 114 40% 3 14.11.2026 -
Tyrese Campbell Sheffield United Активный 109 / 136 40% 1 14.11.2026 -
Leandro Godoy CSKA Sofia Активный 120 / 108 40% 2 12.11.2026 -
Dayne St. Clair Inter Miami CF Активный 143 / 123 40% 1 12.11.2026 -
Maximiliano Silvera Nacional Активный 128 / 119 40% 3 08.11.2026 -
Yoshan Valois Lanús Активный 115 / 111 40% 1 07.11.2026 -
Francisco Bonfiglio Boston River Активный 105 / 112 40% 4 06.11.2026 -
Iván Maggi Sportivo Luqueno Активный 121 / 111 40% 1 04.11.2026 -
Martín Ojeda Orlando City Активный 118 / 126 40% 4 02.11.2026 -
Mariano Peralta Bauer Lazio Активный 88 / 90 40% 1 02.11.2026 -
Esteban Obregón Montevideo City Torque Активный 121 / 120 40% 4 30.10.2026 -
Ignacio Russo Tigre Активный 127 / 138 40% 1 30.10.2026 -
Nicolás Cordero Aldosivi Активный 113 / 111 40% 1 29.10.2026 -
Agustín Venezia Iquique Активный 99 / 104 40% 2 28.10.2026 -
Julián Brea Cobresal Активный 104 / 96 40% 3 26.10.2026 -
Federico Girotti Alianza Lima Активный 123 / 123 40% 4 24.10.2026 -
Enrique Almeida Cerro Largo Активный 87 / 91 40% 2 23.10.2026 -
Dunkan Dorrego Juventud Активный 73 / 102 40% 1 23.10.2026 -
Tadeo Allende Inter Miami CF Активный 113 / 126 40% 2 18.10.2026 -
Egoitz Arana Real Sociedad Активный 83 / 88 40% 1 18.10.2026 -
Tomás Lingua Cerro Largo Активный 82 / 92 40% 1 18.10.2026 -
Nicolás Campisi Sportivo Luqueno Активный 124 / 128 40% 1 17.10.2026 -
Nicolás Sumavil Platense Активный 106 / 127 40% 1 17.10.2026 -
Thiago Rodríguez Artigas Активный 81 / 97 40% 1 17.10.2026 -
Franco Troyansky Audax Italiano Активный 101 / 100 40% 5 14.10.2026 -
Joaquín Zeballos Wanderers Активный 119 / 100 40% 3 14.10.2026 -
Luca Langoni New England Revolution Активный 130 / 110 40% 1 13.10.2026 -
Germán Otaño Danubio Активный 69 / 96 40% 1 12.10.2026 -
Simón Meza Cerrito Активный 72 / 87 40% 1 12.10.2026 -
Emiliano Márquez Central Espanol Активный 86 / 90 40% 2 07.10.2026 -
Nicolás Forastiero Deportivo Maldonado Активный 114 / 107 40% 2 07.10.2026 -
Tomás Ahumada Audax Italiano Активный 118 / 112 40% 2 06.10.2026 -
Emiliano González Almagro Активный 101 / 121 40% 1 06.10.2026 -
Diego Rossi Monterrey Активный 127 / 133 40% 2 05.10.2026 -
Nacer Mertens KV Oostende Активный 118 / 125 40% 1 04.10.2026 -
David Fernández Veracruz Активный 91 / 104 40% 1 04.10.2026 -
Florián Monzón Atlas Активный 147 / 116 40% 3 01.10.2026 -
Agustín Paz Progreso Активный 121 / 124 40% 5 30.09.2026 -
Juan Moreno La Luz Активный 121 / 104 40% 2 28.09.2026 -
Enzo Cabrera Danubio Активный 96 / 120 40% 1 23.09.2026 -
Justo Giani Universidad Catolica Активный 109 / 130 40% 4 21.09.2026 -
Jonatan Torres Cerro Porteno Активный 133 / 131 40% 2 21.09.2026 -
Adrián Parra Deportes Tolima Активный 112 / 123 40% 1 17.09.2026 -
Francisco Casanova Cerrito Активный 102 / 101 40% 1 16.09.2026 -
Lucas Bruera Carabobo Активный 127 / 123 40% 2 14.09.2026 -
Mauro Casoli Talleres Активный 94 / 115 40% 1 14.09.2026 -
Michael Nike Patriotas Активный 117 / 100 40% 2 13.09.2026 -
Cristian Barros Cerro Активный 102 / 104 40% 1 13.09.2026 -
Valentín Luciani Fenix Активный 89 / 110 40% 1 12.09.2026 -
Franco Pulicastro Fortaleza CEIF Активный 116 / 97 40% 1 10.09.2026 -
Jorge Obregón Deportivo Pasto Активный 127 / 106 40% 2 09.09.2026 -
Mourad Tijuana Активный 102 / 123 40% 1 09.09.2026 -
Lucas Acosta Liverpool Montevideo Активный 109 / 117 40% 2 06.09.2026 -
Iker Álvarez Córdoba Активный 112 / 125 40% 1 05.09.2026 -
Joaquín Silva Plaza Colonia Активный 109 / 108 40% 2 03.09.2026 -
Lucas Machado Defensor Sporting Активный 112 / 112 40% 1 03.09.2026 -
Andrés Samurio Tacuarembo Активный 108 / 116 40% 1 02.09.2026 -
Facundo de León Progreso Активный 117 / 113 40% 2 30.08.2026 -
Diego Romero Universitario Активный 116 / 107 40% 1 27.08.2026 -
Franco Carretero Deportivo Lara Активный 94 / 88 40% 1 27.08.2026 -
Tomás Pastorino Liverpool Montevideo Активный 93 / 92 40% 1 23.08.2026 -
Aldo Montes Tigres Активный 105 / 90 40% 1 17.08.2026 -
Maicol Ferreira Danubio Активный 104 / 93 40% 1 17.08.2026 -
Lucas Di Yorio Santos Laguna Активный 119 / 115 40% 1 16.08.2026 -
Jefry Zapata Once Caldas Активный 122 / 123 40% 1 16.08.2026 -
Mateo García Atlas Активный 107 / 125 40% 1 14.08.2026 -
Lucas Verza Olimpia Активный 107 / 100 40% 1 12.08.2026 -
Omar Carabalí O'Higgins Активный 97 / 114 40% 1 12.08.2026 -
Fernando Alonso Cruz Azul Активный 108 / 125 40% 1 10.08.2026 -
Luciano Inverso Rentistas Активный 100 / 114 40% 1 10.08.2026 -
Maximiliano Gómez Nacional Активный 116 / 109 40% 2 06.08.2026 -
Juninho Pumas UNAM Активный 115 / 127 40% 1 06.08.2026 -
Luka Romero Cruz Azul Активный 109 / 140 40% 1 04.08.2026 -
Emiliano Álvarez Progreso Активный 133 / 115 40% 1 04.08.2026 -
Carlos Moreno Pachuca Активный 135 / 127 40% 1 02.08.2026 -